Time;durP1;ratioP1;P1;durP2;ratioP2;P2;SDS_P1;SDS_P2;PMS_P1;PMS_P2;Temp;Humidity;BMP_temperature;BMP_pressure;BME280_temperature;BME280_humidity;BME280_pressure;Samples;Min_cycle;Max_cycle;Signal;HPM_P1;HPM_P2
2022/03/12 00:00:00;;;;;;;6.87;6.10;;;;;10.50;100734.00;;;;10301024;28;20230;-77
2022/03/12 00:05:07;;;;;;;7.07;6.10;;;;;10.50;100733.00;;;;10307254;28;20270;-77
2022/03/12 00:10:13;;;;;;;8.83;5.57;;;;;10.50;100741.00;;;;10300084;28;20603;-77
2022/03/12 00:15:16;;;;;;;9.30;5.47;;;;;10.50;100734.00;;;;10276117;28;20254;-77
2022/03/12 00:20:18;;;;;;;6.97;6.07;;;;;10.50;100745.00;;;;10275270;28;20740;-77
2022/03/12 00:25:22;;;;;;;7.93;6.37;;;;;10.40;100755.00;;;;10323536;28;20223;-77
2022/03/12 00:30:24;;;;;;;6.77;5.43;;;;;10.40;100764.00;;;;10288904;28;20202;-77
2022/03/12 00:35:27;;;;;;;6.70;5.00;;;;;10.40;100769.00;;;;10341653;28;20275;-77
2022/03/12 00:40:29;;;;;;;6.33;4.13;;;;;10.30;100769.00;;;;10323100;28;20232;-77
2022/03/12 00:45:31;;;;;;;4.53;4.10;;;;;10.30;100766.00;;;;10310351;28;20224;-77
2022/03/12 00:50:34;;;;;;;6.67;4.50;;;;;10.30;100778.00;;;;10307018;28;20199;-77
2022/03/12 00:55:36;;;;;;;3.67;3.37;;;;;10.20;100799.00;;;;10322595;28;20231;-77
2022/03/12 01:00:38;;;;;;;4.63;3.80;;;;;10.10;100801.00;;;;10321665;28;20203;-77
2022/03/12 01:05:49;;;;;;;5.20;3.73;;;;;10.00;100804.00;;;;10326340;28;20296;-77
2022/03/12 01:10:52;;;;;;;4.53;3.10;;;;;9.90;100803.00;;;;10305868;28;20208;-77
2022/03/12 01:15:54;;;;;;;3.80;2.90;;;;;9.90;100800.00;;;;10289158;28;20571;-76
2022/03/12 01:21:06;;;;;;;5.00;3.47;;;;;9.80;100801.00;;;;10306117;28;20200;-77
2022/03/12 01:26:11;;;;;;;7.70;3.50;;;;;9.70;100814.00;;;;10289607;28;20286;-78
2022/03/12 01:31:16;;;;;;;4.40;2.93;;;;;9.80;100815.00;;;;10310100;28;20199;-77
2022/03/12 01:36:18;;;;;;;4.03;3.20;;;;;9.90;100807.00;;;;10345574;28;20271;-77
2022/03/12 01:41:26;;;;;;;5.50;3.47;;;;;9.90;100817.00;;;;10359215;28;20204;-77
2022/03/12 01:46:41;;;;;;;3.60;2.80;;;;;10.00;100824.00;;;;10272692;28;20220;-77
2022/03/12 01:51:44;;;;;;;3.00;2.73;;;;;10.00;100814.00;;;;10288928;28;20210;-76
2022/03/12 01:56:46;;;;;;;4.03;3.20;;;;;10.10;100816.00;;;;10305721;28;20223;-77
2022/03/12 02:01:51;;;;;;;3.30;3.00;;;;;10.10;100817.00;;;;10322716;28;20246;-76
2022/03/12 02:06:53;;;;;;;4.00;3.53;;;;;10.00;100813.00;;;;10327539;28;20305;-77
2022/03/12 02:11:56;;;;;;;3.97;3.10;;;;;9.90;100829.00;;;;10334432;28;20211;-77
2022/03/12 02:17:00;;;;;;;4.53;2.80;;;;;9.90;100835.00;;;;10329845;28;20203;-77
2022/03/12 02:22:08;;;;;;;3.93;3.07;;;;;9.90;100838.00;;;;10324242;28;20208;-77
2022/03/12 02:27:10;;;;;;;6.30;3.50;;;;;9.90;100830.00;;;;10288972;28;20256;-77
2022/03/12 02:32:13;;;;;;;4.53;3.17;;;;;9.80;100838.00;;;;10293960;28;20223;-76
2022/03/12 02:37:32;;;;;;;4.07;3.37;;;;;9.80;100851.00;;;;10336288;28;20750;-77
2022/03/12 02:42:39;;;;;;;4.53;3.87;;;;;9.80;100854.00;;;;10349098;28;20301;-77
2022/03/12 02:47:43;;;;;;;4.00;3.60;;;;;9.90;100851.00;;;;10319086;28;20310;-77
2022/03/12 02:52:45;;;;;;;6.03;4.43;;;;;9.90;100853.00;;;;10343951;28;20590;-77
2022/03/12 02:57:49;;;;;;;4.73;4.00;;;;;10.00;100854.00;;;;10336571;28;20195;-77
2022/03/12 03:02:55;;;;;;;4.63;3.70;;;;;10.00;100855.00;;;;10344200;28;20203;-77
2022/03/12 03:08:00;;;;;;;7.03;4.40;;;;;9.90;100853.00;;;;10352159;28;20797;-77
2022/03/12 03:13:17;;;;;;;5.43;4.50;;;;;9.90;100837.00;;;;10351449;28;20671;-77
2022/03/12 03:18:23;;;;;;;6.73;4.33;;;;;9.90;100847.00;;;;10352519;28;20202;-77
2022/03/12 03:23:28;;;;;;;5.33;4.20;;;;;9.70;100864.00;;;;10338063;28;20606;-78
2022/03/12 03:28:30;;;;;;;5.33;3.90;;;;;9.60;100858.00;;;;10314539;28;20492;-78
2022/03/12 03:33:32;;;;;;;4.77;4.30;;;;;9.60;100856.00;;;;10307432;28;20208;-78
2022/03/12 03:38:35;;;;;;;9.17;4.70;;;;;9.60;100859.00;;;;10296883;28;20274;-78
2022/03/12 03:43:37;;;;;;;5.43;4.10;;;;;9.60;100875.00;;;;10314430;28;20234;-78
2022/03/12 03:48:39;;;;;;;5.33;3.97;;;;;9.50;100874.00;;;;10313266;28;20224;-78
2022/03/12 03:53:41;;;;;;;7.93;4.13;;;;;9.50;100881.00;;;;10310859;28;20219;-78
2022/03/12 03:58:43;;;;;;;5.80;4.13;;;;;9.40;100879.00;;;;10300054;28;21081;-78
2022/03/12 04:03:48;;;;;;;6.73;4.53;;;;;9.20;100884.00;;;;10282095;28;20232;-78
2022/03/12 04:08:52;;;;;;;6.20;4.10;;;;;9.20;100886.00;;;;10296474;28;20231;-78
2022/03/12 04:13:57;;;;;;;5.20;4.20;;;;;9.10;100889.00;;;;10312521;28;20211;-78
2022/03/12 04:19:01;;;;;;;4.77;3.83;;;;;9.00;100901.00;;;;10281288;28;20200;-78
2022/03/12 04:24:05;;;;;;;4.37;3.80;;;;;8.90;100905.00;;;;10312634;28;20208;-78
2022/03/12 04:29:08;;;;;;;6.40;4.13;;;;;8.90;100905.00;;;;10295752;28;20208;-78
2022/03/12 04:34:10;;;;;;;7.43;4.07;;;;;9.00;100907.00;;;;10335094;28;20257;-78
2022/03/12 04:39:12;;;;;;;5.80;4.20;;;;;9.10;100903.00;;;;10311537;28;20238;-78
2022/03/12 04:44:14;;;;;;;7.40;5.03;;;;;9.20;100902.00;;;;10294401;28;20267;-77
2022/03/12 04:49:16;;;;;;;5.90;4.23;;;;;9.40;100899.00;;;;10293979;28;20220;-78
2022/03/12 04:54:18;;;;;;;7.07;4.07;;;;;9.40;100894.00;;;;10332935;28;20731;-77
2022/03/12 04:59:20;;;;;;;8.07;4.70;;;;;9.30;100895.00;;;;10330518;28;20196;-78
2022/03/12 05:04:22;;;;;;;5.87;3.83;;;;;9.20;100899.00;;;;10325813;28;20808;-78
2022/03/12 05:09:24;;;;;;;7.63;4.13;;;;;9.10;100902.00;;;;10294680;28;20278;-78
2022/03/12 05:14:26;;;;;;;6.67;4.50;;;;;9.00;100911.00;;;;10278585;28;20255;-78
2022/03/12 05:19:28;;;;;;;6.77;4.13;;;;;8.90;100909.00;;;;10311186;28;20192;-77
2022/03/12 05:24:31;;;;;;;5.93;4.30;;;;;8.90;100918.00;;;;10278741;28;20200;-78
2022/03/12 05:29:34;;;;;;;7.00;4.97;;;;;8.80;100921.00;;;;10301836;28;20218;-78
2022/03/12 05:34:36;;;;;;;7.90;4.47;;;;;8.60;100924.00;;;;10304879;28;20211;-79
2022/03/12 05:39:40;;;;;;;6.50;4.20;;;;;8.50;100925.00;;;;10367315;28;20216;-78
2022/03/12 05:44:41;;;;;;;9.03;4.57;;;;;8.50;100923.00;;;;10351462;28;20188;-78
2022/03/12 05:49:44;;;;;;;7.47;4.07;;;;;8.60;100915.00;;;;10350476;28;20273;-78
2022/03/12 05:54:46;;;;;;;9.70;4.47;;;;;8.50;100926.00;;;;10297332;28;20709;-78
2022/03/12 05:59:49;;;;;;;9.53;4.30;;;;;8.50;100939.00;;;;10325666;28;20222;-78
2022/03/12 06:04:51;;;;;;;7.07;4.30;;;;;8.50;100939.00;;;;10332567;28;20196;-78
2022/03/12 06:09:56;;;;;;;5.83;3.73;;;;;8.50;100948.00;;;;10349613;28;20229;-78
2022/03/12 06:14:58;;;;;;;5.90;3.83;;;;;8.60;100959.00;;;;10350546;28;20227;-78
2022/03/12 06:20:05;;;;;;;9.63;3.87;;;;;8.50;100963.00;;;;10352125;28;20251;-78
2022/03/12 06:39:13;;;;;;;8.60;4.17;;;;;8.80;100966.00;;;;10635472;27;20609;-76
2022/03/12 06:44:16;;;;;;;4.87;3.43;;;;;8.90;100969.00;;;;10557604;27;20204;-76
2022/03/12 06:49:17;;;;;;;5.23;4.07;;;;;9.10;100985.00;;;;10572569;27;20205;-76
2022/03/12 06:54:19;;;;;;;6.03;3.67;;;;;9.20;100985.00;;;;10568408;27;20280;-76
2022/03/12 06:59:20;;;;;;;7.97;3.77;;;;;9.40;100995.00;;;;10576759;27;20199;-76
2022/03/12 07:04:25;;;;;;;8.30;3.80;;;;;9.50;101008.00;;;;10558106;27;20203;-76
2022/03/12 07:09:28;;;;;;;6.47;3.83;;;;;9.70;101010.00;;;;10588025;27;20432;-77
2022/03/12 07:14:30;;;;;;;8.70;4.40;;;;;9.80;101029.00;;;;10549249;27;20211;-76
2022/03/12 07:19:31;;;;;;;7.40;4.37;;;;;10.00;101028.00;;;;10556504;27;20200;-76
2022/03/12 07:24:34;;;;;;;6.70;3.83;;;;;10.30;101038.00;;;;10563356;27;20203;-76
2022/03/12 07:29:36;;;;;;;6.80;3.80;;;;;10.60;101040.00;;;;10547375;27;20192;-76
2022/03/12 07:34:39;;;;;;;8.53;3.97;;;;;10.80;101044.00;;;;10540401;27;20248;-76
2022/03/12 07:39:41;;;;;;;5.23;3.87;;;;;11.10;101041.00;;;;10582017;27;20211;-77
2022/03/12 07:44:42;;;;;;;11.47;4.13;;;;;11.40;101061.00;;;;10564970;27;20204;-77
2022/03/12 07:49:43;;;;;;;7.47;3.73;;;;;11.70;101077.00;;;;10546212;28;20208;-76
2022/03/12 07:54:49;;;;;;;5.63;3.47;;;;;11.70;101084.00;;;;10537358;27;20204;-77
2022/03/12 07:59:50;;;;;;;7.93;3.40;;;;;11.70;101106.00;;;;10517328;27;20192;-77
2022/03/12 08:04:51;;;;;;;6.97;2.93;;;;;12.00;101130.00;;;;10529043;27;20205;-77
2022/03/12 08:09:56;;;;;;;8.87;2.90;;;;;11.90;101133.00;;;;10552109;28;20662;-77
2022/03/12 08:14:58;;;;;;;6.97;3.57;;;;;12.10;101132.00;;;;10507430;27;20250;-76
2022/03/12 08:19:59;;;;;;;5.83;2.83;;;;;12.30;101130.00;;;;10514128;27;20200;-76
2022/03/12 08:25:02;;;;;;;5.60;3.10;;;;;12.50;101123.00;;;;10540564;27;20200;-77
2022/03/12 08:30:07;;;;;;;5.37;2.90;;;;;12.60;101131.00;;;;10509710;27;20204;-76
2022/03/12 08:35:09;;;;;;;6.80;3.17;;;;;12.90;101141.00;;;;10529311;27;20310;-77
2022/03/12 08:40:14;;;;;;;6.47;2.97;;;;;12.40;101148.00;;;;10528330;27;20220;-76
2022/03/12 08:45:15;;;;;;;11.13;4.13;;;;;12.20;101153.00;;;;10513842;28;20192;-76
2022/03/12 08:50:17;;;;;;;8.97;2.87;;;;;12.20;101154.00;;;;10533105;28;20204;-77
2022/03/12 08:55:18;;;;;;;7.87;3.20;;;;;12.70;101162.00;;;;10531862;27;20216;-77
2022/03/12 09:00:22;;;;;;;5.13;2.70;;;;;12.90;101161.00;;;;10536464;27;20248;-76
2022/03/12 09:05:24;;;;;;;7.43;2.90;;;;;13.60;101169.00;;;;10561356;27;20200;-76
2022/03/12 09:10:27;;;;;;;8.50;2.80;;;;;13.50;101173.00;;;;10545400;27;20204;-76
2022/03/12 09:15:28;;;;;;;8.50;3.07;;;;;13.80;101173.00;;;;10495088;28;20469;-76
2022/03/12 09:20:29;;;;;;;7.87;2.77;;;;;14.50;101165.00;;;;10516034;27;20205;-77
2022/03/12 09:25:31;;;;;;;8.20;3.17;;;;;14.90;101164.00;;;;10500444;28;20242;-77
2022/03/12 09:30:32;;;;;;;6.40;2.63;;;;;15.40;101167.00;;;;10493531;28;20212;-77
2022/03/12 09:35:34;;;;;;;4.20;2.53;;;;;15.60;101161.00;;;;10537366;27;20214;-76
2022/03/12 09:40:35;;;;;;;7.97;3.20;;;;;15.70;101146.00;;;;10500867;28;20315;-76
2022/03/12 09:45:42;;;;;;;6.23;2.53;;;;;15.90;101140.00;;;;10515109;27;20215;-76
2022/03/12 09:50:43;;;;;;;5.23;3.20;;;;;16.50;101141.00;;;;10510574;27;20931;-76
2022/03/12 09:55:45;;;;;;;4.82;2.38;;;;;16.70;101143.00;;;;10549370;27;20242;-77
2022/03/12 10:00:46;;;;;;;6.43;2.38;;;;;16.90;101152.00;;;;10526120;27;20211;-76
2022/03/12 10:05:47;;;;;;;3.80;2.30;;;;;17.30;101144.00;;;;10523712;27;20200;-77
2022/03/12 10:10:49;;;;;;;3.78;1.98;;;;;17.80;101146.00;;;;10507187;28;20231;-76
2022/03/12 10:15:51;;;;;;;2.83;1.90;;;;;18.20;101141.00;;;;10492826;28;20221;-76
2022/03/12 10:20:53;;;;;;;7.60;1.80;;;;;18.10;101120.00;;;;10498196;28;20204;-76
2022/03/12 10:25:55;;;;;;;3.60;2.08;;;;;18.50;101124.00;;;;10585863;27;20199;-76
2022/03/12 10:30:57;;;;;;;2.58;1.60;;;;;19.10;101115.00;;;;10514598;28;20311;-78
2022/03/12 10:36:14;;;;;;;4.43;1.85;;;;;19.80;101114.00;;;;10542366;27;20196;-76
2022/03/12 10:41:17;;;;;;;4.75;1.65;;;;;19.40;101125.00;;;;10539238;27;20243;-76
2022/03/12 10:46:21;;;;;;;7.13;1.85;;;;;18.80;101113.00;;;;10511765;28;20579;-76
2022/03/12 10:51:39;;;;;;;8.45;2.22;;;;;18.40;101120.00;;;;10523739;27;20204;-77
2022/03/12 10:56:46;;;;;;;7.22;1.75;;;;;17.90;101117.00;;;;10535457;28;20197;-76
2022/03/12 11:01:53;;;;;;;7.00;1.98;;;;;18.20;101118.00;;;;10522080;28;20196;-76
2022/03/12 11:06:56;;;;;;;5.10;2.20;;;;;19.00;101120.00;;;;10549016;27;20306;-77
2022/03/12 11:11:59;;;;;;;4.75;1.90;;;;;19.60;101115.00;;;;10552236;27;20196;-77
2022/03/12 11:17:02;;;;;;;4.97;1.60;;;;;19.60;101116.00;;;;10547679;28;20227;-76
2022/03/12 11:22:14;;;;;;;6.72;1.73;;;;;19.30;101126.00;;;;10566465;27;20430;-77
2022/03/12 11:27:31;;;;;;;7.90;2.15;;;;;18.60;101131.00;;;;10542975;27;20292;-76
2022/03/12 11:32:35;;;;;;;4.07;1.70;;;;;17.80;101124.00;;;;10536330;27;20275;-76
2022/03/12 11:37:41;;;;;;;8.57;2.05;;;;;17.60;101120.00;;;;10502580;27;20429;-76
2022/03/12 11:42:42;;;;;;;5.93;1.40;;;;;17.20;101123.00;;;;10538099;27;20340;-76
2022/03/12 11:47:45;;;;;;;5.15;2.20;;;;;17.50;101112.00;;;;10517837;27;20223;-77
2022/03/12 11:52:47;;;;;;;6.25;1.88;;;;;18.40;101117.00;;;;10538320;28;20223;-75
2022/03/12 11:57:49;;;;;;;6.13;1.80;;;;;18.40;101114.00;;;;10547414;27;20851;-76
2022/03/12 12:02:53;;;;;;;3.05;1.38;;;;;18.40;101105.00;;;;10552637;27;20204;-77
2022/03/12 12:07:56;;;;;;;7.00;2.00;;;;;18.80;101101.00;;;;10515512;28;20953;-77
2022/03/12 12:13:02;;;;;;;10.18;2.20;;;;;18.90;101101.00;;;;10535908;27;20491;-76
2022/03/12 12:18:04;;;;;;;8.40;1.98;;;;;18.60;101080.00;;;;10538932;27;20200;-76
2022/03/12 12:23:05;;;;;;;5.35;1.90;;;;;18.80;101096.00;;;;10573780;27;20249;-77
2022/03/12 12:28:21;;;;;;;4.18;1.65;;;;;18.90;101075.00;;;;10524652;27;20743;-76
2022/03/12 12:33:29;;;;;;;5.65;1.83;;;;;19.80;101063.00;;;;10550175;27;20203;-76
2022/03/12 12:38:30;;;;;;;5.65;1.70;;;;;19.60;101049.00;;;;10554160;27;20258;-76
2022/03/12 12:43:34;;;;;;;7.63;2.03;;;;;19.40;101050.00;;;;10565254;27;20208;-77
2022/03/12 12:48:41;;;;;;;7.45;2.15;;;;;19.40;101048.00;;;;10559004;27;20212;-77
2022/03/12 12:53:53;;;;;;;6.40;2.20;;;;;19.40;101049.00;;;;10527149;27;20210;-77
2022/03/12 12:58:58;;;;;;;5.07;1.77;;;;;18.80;101038.00;;;;10536475;27;20588;-77
2022/03/12 13:03:59;;;;;;;6.72;1.63;;;;;18.10;101036.00;;;;10548142;27;20204;-77
2022/03/12 13:09:08;;;;;;;4.93;1.85;;;;;18.20;101027.00;;;;10526339;27;20297;-76
2022/03/12 13:14:11;;;;;;;3.70;1.63;;;;;18.60;101026.00;;;;10522664;28;20196;-76
2022/03/12 13:19:35;;;;;;;7.90;2.00;;;;;19.10;101027.00;;;;10556257;27;20613;-76
2022/03/12 13:25:03;;;;;;;6.00;2.00;;;;;18.40;101032.00;;;;10532250;27;20194;-76
2022/03/12 13:30:15;;;;;;;4.63;1.77;;;;;17.80;101029.00;;;;10537016;27;20846;-76
2022/03/12 13:35:25;;;;;;;5.35;1.70;;;;;17.40;101029.00;;;;10515955;28;20231;-76
2022/03/12 13:40:28;;;;;;;7.00;2.10;;;;;17.60;101010.00;;;;10527053;27;20227;-76
2022/03/12 13:45:32;;;;;;;5.30;1.70;;;;;18.30;101006.00;;;;10542701;27;20212;-75
2022/03/12 13:50:34;;;;;;;5.03;1.77;;;;;19.70;100994.00;;;;10560320;27;20266;-76
2022/03/12 13:55:35;;;;;;;7.20;2.05;;;;;19.30;100991.00;;;;10546369;27;20196;-76
2022/03/12 14:00:41;;;;;;;5.75;1.83;;;;;19.50;100985.00;;;;10533920;27;20207;-77
2022/03/12 14:05:43;;;;;;;6.45;1.73;;;;;20.00;100978.00;;;;10540139;27;20204;-77
2022/03/12 14:10:46;;;;;;;4.75;1.80;;;;;19.10;100975.00;;;;10552359;28;20200;-76
2022/03/12 14:15:49;;;;;;;6.32;1.55;;;;;18.50;100976.00;;;;10533291;27;20218;-77
2022/03/12 14:20:51;;;;;;;5.93;1.70;;;;;18.20;100975.00;;;;10550778;27;20728;-76
2022/03/12 14:25:53;;;;;;;6.78;2.03;;;;;18.00;100977.00;;;;10522734;27;20254;-76
2022/03/12 14:30:54;;;;;;;4.70;1.65;;;;;17.60;100979.00;;;;10532394;28;20189;-77
2022/03/12 14:35:57;;;;;;;5.60;1.60;;;;;17.10;100978.00;;;;10534987;27;20203;-76
2022/03/12 14:41:00;;;;;;;6.87;1.93;;;;;16.90;100974.00;;;;10532828;27;20236;-77
2022/03/12 14:46:02;;;;;;;6.90;1.60;;;;;16.80;100961.00;;;;10541176;27;20703;-77
2022/03/12 14:51:05;;;;;;;6.80;2.00;;;;;17.50;100952.00;;;;10517087;27;20246;-76
2022/03/12 14:56:07;;;;;;;5.47;2.00;;;;;17.60;100955.00;;;;10526457;28;20839;-77
2022/03/12 15:01:24;;;;;;;4.40;2.20;;;;;17.90;100943.00;;;;10504708;27;20219;-77
2022/03/12 15:06:32;;;;;;;7.95;2.35;;;;;18.10;100942.00;;;;10585148;27;20208;-76
2022/03/12 15:11:35;;;;;;;7.57;2.83;;;;;17.20;100943.00;;;;10561270;27;20200;-77
2022/03/12 15:16:38;;;;;;;5.60;2.20;;;;;16.50;100934.00;;;;10549917;27;20188;-77
2022/03/12 15:21:55;;;;;;;8.90;2.43;;;;;15.90;100925.00;;;;10533501;27;20742;-77
2022/03/12 15:27:03;;;;;;;5.33;1.87;;;;;15.30;100924.00;;;;10553197;27;20298;-77
2022/03/12 15:32:17;;;;;;;5.70;2.40;;;;;15.10;100913.00;;;;10492681;28;20208;-79
2022/03/12 15:37:31;;;;;;;5.77;2.17;;;;;14.80;100916.00;;;;10516357;27;20290;-77
2022/03/12 15:42:38;;;;;;;5.73;2.07;;;;;14.60;100915.00;;;;10527956;27;20196;-77
2022/03/12 15:47:41;;;;;;;6.47;2.50;;;;;14.50;100904.00;;;;10569432;27;20235;-78
2022/03/12 15:52:45;;;;;;;9.57;2.20;;;;;14.40;100897.00;;;;10536383;27;20196;-78
2022/03/12 15:57:46;;;;;;;5.00;1.40;;;;;14.40;100894.00;;;;10548788;27;20562;-77
2022/03/12 16:02:49;;;;;;;4.73;1.77;;;;;14.30;100893.00;;;;10530780;27;20550;-76
2022/03/12 16:07:54;;;;;;;4.40;2.07;;;;;14.30;100899.00;;;;10544472;27;20208;-77
2022/03/12 16:12:56;;;;;;;3.97;2.23;;;;;14.20;100890.00;;;;10569013;27;20219;-77
2022/03/12 16:18:02;;;;;;;5.37;2.20;;;;;14.10;100898.00;;;;10551060;27;20249;-76
2022/03/12 16:23:03;;;;;;;4.77;2.30;;;;;14.30;100884.00;;;;10546607;27;20241;-76
2022/03/12 16:28:06;;;;;;;2.80;2.00;;;;;14.30;100889.00;;;;10558863;27;20212;-77
2022/03/12 16:33:08;;;;;;;3.57;2.00;;;;;14.30;100880.00;;;;10533960;27;20195;-77
2022/03/12 16:38:09;;;;;;;4.10;2.30;;;;;14.30;100880.00;;;;10516301;27;20212;-77
2022/03/12 16:43:13;;;;;;;2.97;1.80;;;;;14.40;100882.00;;;;10551415;27;20203;-76
2022/03/12 16:48:16;;;;;;;3.47;2.00;;;;;14.30;100891.00;;;;10522917;27;20235;-77
2022/03/12 16:53:17;;;;;;;2.60;1.90;;;;;14.30;100883.00;;;;10507897;27;20237;-76
2022/03/12 16:58:20;;;;;;;3.43;2.10;;;;;14.20;100881.00;;;;10512545;27;20200;-76
2022/03/12 17:03:22;;;;;;;3.33;1.97;;;;;14.10;100878.00;;;;10549851;27;20206;-76
2022/03/12 17:08:24;;;;;;;5.43;1.83;;;;;14.00;100884.00;;;;10561672;27;20208;-77
2022/03/12 17:13:28;;;;;;;2.20;2.00;;;;;13.90;100885.00;;;;10579168;27;20283;-76
2022/03/12 17:18:30;;;;;;;1.87;1.77;;;;;13.90;100878.00;;;;10579859;27;20198;-76
2022/03/12 17:23:33;;;;;;;2.90;2.10;;;;;13.80;100883.00;;;;10513972;28;20196;-77
2022/03/12 17:28:34;;;;;;;2.33;2.13;;;;;13.80;100893.00;;;;10518045;28;20230;-76
2022/03/12 17:33:36;;;;;;;2.80;2.13;;;;;13.60;100884.00;;;;10520901;27;20196;-77
2022/03/12 17:38:37;;;;;;;2.67;1.73;;;;;13.50;100884.00;;;;10596130;27;20837;-77
2022/03/12 17:43:38;;;;;;;3.03;2.23;;;;;13.50;100886.00;;;;10528802;27;20204;-76
2022/03/12 17:48:40;;;;;;;2.77;2.30;;;;;13.50;100894.00;;;;10551040;28;20277;-76
2022/03/12 17:53:42;;;;;;;3.93;2.43;;;;;13.40;100893.00;;;;10533872;28;20260;-77
2022/03/12 17:58:43;;;;;;;3.23;2.30;;;;;13.30;100886.00;;;;10549802;28;20524;-77
2022/03/12 18:03:44;;;;;;;3.60;2.30;;;;;13.20;100892.00;;;;10554126;28;20252;-77
2022/03/12 18:08:46;;;;;;;3.40;2.70;;;;;13.20;100897.00;;;;10560768;27;20305;-77
2022/03/12 18:13:51;;;;;;;3.00;2.50;;;;;13.10;100902.00;;;;10536018;27;20215;-77
2022/03/12 18:18:52;;;;;;;4.77;2.83;;;;;13.10;100899.00;;;;10517708;27;20234;-77
2022/03/12 18:23:54;;;;;;;3.97;2.70;;;;;13.10;100892.00;;;;10509546;28;20193;-77
2022/03/12 18:28:56;;;;;;;4.53;2.87;;;;;13.00;100886.00;;;;10508453;27;20223;-76
2022/03/12 18:33:57;;;;;;;5.10;2.73;;;;;13.00;100893.00;;;;10506188;27;20331;-76
2022/03/12 18:39:00;;;;;;;3.20;2.53;;;;;13.00;100889.00;;;;10577190;27;20375;-76
2022/03/12 18:44:01;;;;;;;3.47;3.13;;;;;12.90;100896.00;;;;10542948;27;20187;-77
2022/03/12 18:49:05;;;;;;;4.37;3.20;;;;;12.90;100896.00;;;;10550543;27;20881;-76
2022/03/12 18:54:07;;;;;;;4.23;2.77;;;;;12.80;100896.00;;;;10532609;27;20219;-76
2022/03/12 18:59:10;;;;;;;5.37;3.50;;;;;12.80;100891.00;;;;10531978;27;20207;-76
2022/03/12 19:04:12;;;;;;;4.10;3.70;;;;;12.80;100889.00;;;;10524584;27;20743;-76
2022/03/12 19:09:13;;;;;;;4.50;3.47;;;;;12.70;100905.00;;;;10575708;27;20581;-76
2022/03/12 19:14:15;;;;;;;5.93;3.70;;;;;12.70;100905.00;;;;10558580;27;20187;-76
2022/03/12 19:19:17;;;;;;;3.03;2.73;;;;;12.60;100911.00;;;;10575506;27;20199;-77
2022/03/12 19:24:19;;;;;;;2.90;2.60;;;;;12.50;100915.00;;;;10474236;28;20197;-76
2022/03/12 19:29:24;;;;;;;2.50;2.30;;;;;12.30;100924.00;;;;10521915;28;20224;-76
2022/03/12 19:34:25;;;;;;;2.37;2.03;;;;;12.20;100918.00;;;;10539865;28;20194;-76
2022/03/12 19:39:26;;;;;;;3.47;2.77;;;;;12.00;100917.00;;;;10574498;27;20645;-77
2022/03/12 19:44:29;;;;;;;4.07;2.50;;;;;12.00;100932.00;;;;10544122;27;20698;-76
2022/03/12 19:49:38;;;;;;;4.03;2.47;;;;;11.90;100925.00;;;;10520575;27;20216;-76
2022/03/12 19:54:39;;;;;;;3.80;2.30;;;;;11.80;100928.00;;;;10513487;28;20196;-77
2022/03/12 19:59:40;;;;;;;2.57;2.00;;;;;11.80;100934.00;;;;10500216;28;20200;-76
2022/03/12 20:04:42;;;;;;;3.90;2.10;;;;;11.70;100938.00;;;;10519351;27;20627;-77
2022/03/12 20:09:44;;;;;;;2.40;2.20;;;;;11.60;100939.00;;;;10560647;27;20219;-77
2022/03/12 20:14:48;;;;;;;2.10;1.90;;;;;11.50;100928.00;;;;10502002;28;20196;-76
2022/03/12 20:19:51;;;;;;;3.50;2.37;;;;;11.50;100944.00;;;;10515337;28;20250;-76
2022/03/12 20:24:53;;;;;;;2.20;1.90;;;;;11.40;100939.00;;;;10505149;28;20197;-76
2022/03/12 20:29:54;;;;;;;3.13;2.40;;;;;11.40;100950.00;;;;10520403;27;20527;-76
2022/03/12 20:34:55;;;;;;;2.50;2.30;;;;;11.40;100955.00;;;;10551272;27;20863;-77
2022/03/12 20:39:56;;;;;;;3.93;2.07;;;;;11.40;100943.00;;;;10596619;27;20215;-76
2022/03/12 20:44:58;;;;;;;2.80;2.03;;;;;11.40;100952.00;;;;10568657;27;20619;-76
2022/03/12 20:49:59;;;;;;;2.47;1.80;;;;;11.40;100959.00;;;;10552325;28;20223;-76
2022/03/12 20:55:00;;;;;;;2.90;2.20;;;;;11.40;100949.00;;;;10552332;27;20199;-76
2022/03/12 21:00:04;;;;;;;2.70;2.40;;;;;11.30;100939.00;;;;10494313;28;20250;-76
2022/03/12 21:05:05;;;;;;;2.40;2.20;;;;;11.30;100943.00;;;;10540410;28;20203;-76
2022/03/12 21:10:07;;;;;;;3.23;2.17;;;;;11.20;100950.00;;;;10563371;27;21206;-76
2022/03/12 21:15:08;;;;;;;3.70;2.40;;;;;11.20;100944.00;;;;10561778;27;20618;-76
2022/03/12 21:20:15;;;;;;;3.77;2.63;;;;;11.10;100942.00;;;;10537798;27;20200;-76
2022/03/12 21:25:19;;;;;;;2.97;2.57;;;;;11.10;100937.00;;;;10518468;27;20236;-76
2022/03/12 21:30:22;;;;;;;2.40;2.17;;;;;11.10;100948.00;;;;10516978;28;20196;-76
2022/03/12 21:35:25;;;;;;;3.80;2.53;;;;;11.10;100932.00;;;;10532944;28;20204;-76
2022/03/12 21:40:32;;;;;;;3.00;2.70;;;;;11.10;100934.00;;;;10517893;28;20865;-76
2022/03/12 21:45:35;;;;;;;4.00;2.80;;;;;11.10;100932.00;;;;10551317;28;20243;-77
2022/03/12 21:50:38;;;;;;;3.13;2.60;;;;;11.00;100918.00;;;;10535327;28;20188;-76
2022/03/12 21:55:40;;;;;;;5.17;3.10;;;;;11.00;100910.00;;;;10533503;27;20207;-76
2022/03/12 22:00:41;;;;;;;7.53;3.67;;;;;11.00;100905.00;;;;10534693;27;20199;-77
2022/03/12 22:05:44;;;;;;;5.20;3.03;;;;;11.00;100911.00;;;;10541531;27;20311;-76
2022/03/12 22:10:47;;;;;;;7.43;4.40;;;;;11.00;100906.00;;;;10578525;27;20278;-76
2022/03/12 22:15:48;;;;;;;6.87;4.07;;;;;10.90;100904.00;;;;10576174;27;20222;-76
2022/03/12 22:20:51;;;;;;;7.30;3.30;;;;;10.90;100906.00;;;;10561623;27;20689;-76
2022/03/12 22:25:53;;;;;;;4.10;3.03;;;;;10.90;100912.00;;;;10531795;27;20220;-76
2022/03/12 22:30:54;;;;;;;5.40;3.13;;;;;10.90;100905.00;;;;10515896;27;20192;-76
2022/03/12 22:35:55;;;;;;;2.97;2.40;;;;;11.00;100911.00;;;;10554103;27;20302;-76
2022/03/12 22:41:02;;;;;;;4.23;2.97;;;;;11.00;100916.00;;;;10592411;27;20241;-76
2022/03/12 22:46:06;;;;;;;3.13;2.17;;;;;11.10;100900.00;;;;10576727;27;20220;-78
2022/03/12 22:51:10;;;;;;;2.90;2.20;;;;;11.10;100903.00;;;;10550447;27;20415;-77
2022/03/12 22:56:11;;;;;;;2.20;2.00;;;;;11.10;100910.00;;;;10517736;27;20196;-75
2022/03/12 23:01:51;;;;;;;2.53;2.20;;;;;11.10;100915.00;;;;10535642;27;20203;-77
2022/03/12 23:12:15;;;;;;;2.70;2.20;;;;;11.00;100904.00;;;;10532864;27;20539;-75
2022/03/12 23:17:21;;;;;;;2.17;1.97;;;;;11.00;100911.00;;;;10550526;27;20185;-77
2022/03/12 23:22:23;;;;;;;2.10;1.90;;;;;10.90;100909.00;;;;10554235;27;20196;-75
2022/03/12 23:27:31;;;;;;;2.33;1.90;;;;;10.80;100908.00;;;;10523371;27;20219;-77
2022/03/12 23:32:32;;;;;;;4.10;2.57;;;;;10.70;100898.00;;;;10518626;27;20269;-75
2022/03/12 23:37:34;;;;;;;2.80;2.23;;;;;10.60;100893.00;;;;10584467;27;20284;-75
2022/03/12 23:42:40;;;;;;;3.47;2.03;;;;;10.60;100894.00;;;;10561565;28;20197;-75
2022/03/12 23:47:42;;;;;;;2.93;2.20;;;;;10.60;100886.00;;;;10553641;27;20208;-75
2022/03/12 23:52:44;;;;;;;2.73;2.27;;;;;10.50;100868.00;;;;10519866;27;20255;-75
2022/03/12 23:57:46;;;;;;;2.40;2.00;;;;;10.50;100896.00;;;;10520092;27;20196;-78
